sensor_id;sensor_type;location;lat;lon;timestamp;noise_LAeq;noise_LA_min;noise_LA_max;noise_LA01;noise_LA95
74496;Laerm;62979;55.720;37.606;2023-03-02T00:02:15;44.89;39.78;63.41;;
74496;Laerm;62979;55.720;37.606;2023-03-02T00:04:49;44.07;40.30;54.80;;
74496;Laerm;62979;55.720;37.606;2023-03-02T00:07:23;42.96;39.10;53.58;;
74496;Laerm;62979;55.720;37.606;2023-03-02T00:09:53;44.15;39.66;64.69;;
74496;Laerm;62979;55.720;37.606;2023-03-02T00:12:20;44.92;40.25;54.08;;
74496;Laerm;62979;55.720;37.606;2023-03-02T00:14:47;43.56;40.18;61.33;;
74496;Laerm;62979;55.720;37.606;2023-03-02T00:17:14;47.13;40.01;59.82;;
74496;Laerm;62979;55.720;37.606;2023-03-02T00:19:41;46.20;38.78;63.25;;
74496;Laerm;62979;55.720;37.606;2023-03-02T00:22:09;50.66;38.88;81.32;;
74496;Laerm;62979;55.720;37.606;2023-03-02T00:24:37;42.25;38.55;51.15;;
74496;Laerm;62979;55.720;37.606;2023-03-02T00:27:04;43.98;37.89;53.83;;
74496;Laerm;62979;55.720;37.606;2023-03-02T00:29:31;42.54;37.91;52.69;;
74496;Laerm;62979;55.720;37.606;2023-03-02T00:31:58;41.17;37.10;47.65;;
74496;Laerm;62979;55.720;37.606;2023-03-02T00:34:25;45.98;38.61;57.48;;
74496;Laerm;62979;55.720;37.606;2023-03-02T00:36:52;42.50;38.75;57.02;;
74496;Laerm;62979;55.720;37.606;2023-03-02T00:39:19;42.11;38.04;47.37;;
74496;Laerm;62979;55.720;37.606;2023-03-02T00:41:47;41.29;37.50;48.37;;
74496;Laerm;62979;55.720;37.606;2023-03-02T00:44:15;43.24;37.14;53.28;;
74496;Laerm;62979;55.720;37.606;2023-03-02T00:46:43;41.89;37.48;51.74;;
74496;Laerm;62979;55.720;37.606;2023-03-02T00:49:10;42.58;37.33;52.57;;
74496;Laerm;62979;55.720;37.606;2023-03-02T00:51:37;46.56;38.06;58.62;;
74496;Laerm;62979;55.720;37.606;2023-03-02T00:54:04;44.93;37.82;67.99;;
74496;Laerm;62979;55.720;37.606;2023-03-02T00:56:31;44.23;37.69;58.19;;
74496;Laerm;62979;55.720;37.606;2023-03-02T00:59:04;46.09;37.46;60.28;;
74496;Laerm;62979;55.720;37.606;2023-03-02T01:01:31;41.36;37.24;47.40;;
74496;Laerm;62979;55.720;37.606;2023-03-02T01:03:58;43.40;37.90;61.72;;
74496;Laerm;62979;55.720;37.606;2023-03-02T01:06:25;44.35;38.61;57.07;;
74496;Laerm;62979;55.720;37.606;2023-03-02T01:08:52;45.25;38.59;57.65;;
74496;Laerm;62979;55.720;37.606;2023-03-02T01:11:21;40.52;35.80;64.75;;
74496;Laerm;62979;55.720;37.606;2023-03-02T01:13:49;41.65;35.96;56.19;;
74496;Laerm;62979;55.720;37.606;2023-03-02T01:16:17;44.47;37.62;54.34;;
74496;Laerm;62979;55.720;37.606;2023-03-02T01:18:44;41.54;37.69;45.82;;
74496;Laerm;62979;55.720;37.606;2023-03-02T01:21:14;44.08;38.23;56.72;;
74496;Laerm;62979;55.720;37.606;2023-03-02T01:23:42;49.44;38.63;64.23;;
74496;Laerm;62979;55.720;37.606;2023-03-02T01:26:10;46.09;37.52;58.90;;
74496;Laerm;62979;55.720;37.606;2023-03-02T01:28:38;41.74;38.35;47.41;;
74496;Laerm;62979;55.720;37.606;2023-03-02T01:31:05;49.00;37.43;60.66;;
74496;Laerm;62979;55.720;37.606;2023-03-02T01:33:33;43.13;37.65;51.91;;
74496;Laerm;62979;55.720;37.606;2023-03-02T01:36:02;41.27;36.63;50.85;;
74496;Laerm;62979;55.720;37.606;2023-03-02T01:38:29;43.32;38.21;54.61;;
74496;Laerm;62979;55.720;37.606;2023-03-02T01:40:56;43.91;38.73;55.55;;
74496;Laerm;62979;55.720;37.606;2023-03-02T01:43:22;48.77;38.66;60.96;;
74496;Laerm;62979;55.720;37.606;2023-03-02T01:45:54;42.20;36.15;48.93;;
74496;Laerm;62979;55.720;37.606;2023-03-02T01:48:28;42.72;36.73;51.74;;
74496;Laerm;62979;55.720;37.606;2023-03-02T01:50:59;40.73;36.63;47.49;;
74496;Laerm;62979;55.720;37.606;2023-03-02T01:53:30;41.25;37.22;47.85;;
74496;Laerm;62979;55.720;37.606;2023-03-02T01:56:01;46.88;37.38;60.06;;
74496;Laerm;62979;55.720;37.606;2023-03-02T01:58:33;42.25;37.20;49.30;;
74496;Laerm;62979;55.720;37.606;2023-03-02T02:01:03;41.08;38.03;45.62;;
74496;Laerm;62979;55.720;37.606;2023-03-02T02:03:30;43.45;37.50;57.80;;
74496;Laerm;62979;55.720;37.606;2023-03-02T02:06:11;49.29;39.41;69.66;;
74496;Laerm;62979;55.720;37.606;2023-03-02T02:08:43;47.45;40.00;64.14;;
74496;Laerm;62979;55.720;37.606;2023-03-02T02:11:11;44.43;38.43;57.09;;
74496;Laerm;62979;55.720;37.606;2023-03-02T02:13:38;42.67;38.33;47.56;;
74496;Laerm;62979;55.720;37.606;2023-03-02T02:16:06;49.94;38.97;68.34;;
74496;Laerm;62979;55.720;37.606;2023-03-02T02:18:37;49.36;38.75;63.91;;
74496;Laerm;62979;55.720;37.606;2023-03-02T02:21:07;50.28;38.71;63.18;;
74496;Laerm;62979;55.720;37.606;2023-03-02T02:23:41;46.13;38.37;56.49;;
74496;Laerm;62979;55.720;37.606;2023-03-02T02:26:20;46.30;39.10;60.45;;
74496;Laerm;62979;55.720;37.606;2023-03-02T02:28:56;44.65;38.77;49.84;;
74496;Laerm;62979;55.720;37.606;2023-03-02T02:31:33;42.97;37.88;49.88;;
74496;Laerm;62979;55.720;37.606;2023-03-02T02:34:08;46.81;36.95;59.69;;
74496;Laerm;62979;55.720;37.606;2023-03-02T02:36:44;48.59;39.31;71.02;;
74496;Laerm;62979;55.720;37.606;2023-03-02T02:39:19;47.62;39.31;67.03;;
74496;Laerm;62979;55.720;37.606;2023-03-02T02:41:53;51.45;39.06;65.28;;
74496;Laerm;62979;55.720;37.606;2023-03-02T02:44:21;47.30;40.90;63.24;;
74496;Laerm;62979;55.720;37.606;2023-03-02T02:46:48;48.06;39.34;61.95;;
74496;Laerm;62979;55.720;37.606;2023-03-02T02:49:28;45.20;39.78;51.20;;
74496;Laerm;62979;55.720;37.606;2023-03-02T02:51:56;46.87;41.08;58.81;;
74496;Laerm;62979;55.720;37.606;2023-03-02T02:54:25;49.49;42.16;66.19;;
74496;Laerm;62979;55.720;37.606;2023-03-02T02:56:56;48.78;39.99;67.96;;
74496;Laerm;62979;55.720;37.606;2023-03-02T02:59:29;46.85;41.02;59.83;;
74496;Laerm;62979;55.720;37.606;2023-03-02T03:01:59;46.04;41.02;61.97;;
74496;Laerm;62979;55.720;37.606;2023-03-02T03:04:30;49.10;41.67;61.17;;
74496;Laerm;62979;55.720;37.606;2023-03-02T03:07:01;46.29;40.88;57.49;;
74496;Laerm;62979;55.720;37.606;2023-03-02T03:09:29;46.51;41.30;57.79;;
74496;Laerm;62979;55.720;37.606;2023-03-02T03:12:03;47.93;42.00;58.46;;
74496;Laerm;62979;55.720;37.606;2023-03-02T03:14:37;50.24;42.65;61.99;;
74496;Laerm;62979;55.720;37.606;2023-03-02T03:17:05;50.81;40.42;63.10;;
74496;Laerm;62979;55.720;37.606;2023-03-02T03:19:38;55.18;44.52;73.68;;
74496;Laerm;62979;55.720;37.606;2023-03-02T03:22:05;50.08;43.06;60.80;;
74496;Laerm;62979;55.720;37.606;2023-03-02T03:24:33;52.29;44.48;75.55;;
74496;Laerm;62979;55.720;37.606;2023-03-02T03:27:02;53.72;43.98;66.80;;
74496;Laerm;62979;55.720;37.606;2023-03-02T03:29:31;50.35;43.54;67.36;;
74496;Laerm;62979;55.720;37.606;2023-03-02T03:32:00;49.34;42.73;60.61;;
74496;Laerm;62979;55.720;37.606;2023-03-02T03:34:29;51.98;43.44;62.91;;
74496;Laerm;62979;55.720;37.606;2023-03-02T03:36:56;49.09;42.15;61.41;;
74496;Laerm;62979;55.720;37.606;2023-03-02T03:39:27;50.01;42.25;59.33;;
74496;Laerm;62979;55.720;37.606;2023-03-02T03:41:54;55.22;46.05;70.00;;
74496;Laerm;62979;55.720;37.606;2023-03-02T03:44:23;53.25;44.08;64.99;;
74496;Laerm;62979;55.720;37.606;2023-03-02T03:46:50;51.56;44.26;62.99;;
74496;Laerm;62979;55.720;37.606;2023-03-02T03:49:17;56.40;45.09;71.98;;
74496;Laerm;62979;55.720;37.606;2023-03-02T03:51:44;51.95;44.52;60.78;;
74496;Laerm;62979;55.720;37.606;2023-03-02T03:54:11;53.55;44.32;74.78;;
74496;Laerm;62979;55.720;37.606;2023-03-02T03:56:41;53.94;45.64;69.21;;
74496;Laerm;62979;55.720;37.606;2023-03-02T03:59:11;56.42;44.99;74.82;;
74496;Laerm;62979;55.720;37.606;2023-03-02T04:01:43;57.94;44.15;69.54;;
74496;Laerm;62979;55.720;37.606;2023-03-02T04:04:14;61.31;45.82;72.82;;
74496;Laerm;62979;55.720;37.606;2023-03-02T04:06:42;55.75;49.94;63.67;;
74496;Laerm;62979;55.720;37.606;2023-03-02T04:09:10;53.63;47.05;69.81;;
74496;Laerm;62979;55.720;37.606;2023-03-02T04:11:41;53.24;47.22;61.72;;
74496;Laerm;62979;55.720;37.606;2023-03-02T04:14:09;55.60;46.01;71.38;;
74496;Laerm;62979;55.720;37.606;2023-03-02T04:16:37;55.25;47.80;63.67;;
74496;Laerm;62979;55.720;37.606;2023-03-02T04:19:06;55.48;46.13;64.98;;
74496;Laerm;62979;55.720;37.606;2023-03-02T04:21:34;56.09;48.52;66.27;;
74496;Laerm;62979;55.720;37.606;2023-03-02T04:24:01;53.75;45.80;62.19;;
74496;Laerm;62979;55.720;37.606;2023-03-02T04:26:28;54.09;46.91;62.30;;
74496;Laerm;62979;55.720;37.606;2023-03-02T04:28:55;55.79;49.00;66.84;;
74496;Laerm;62979;55.720;37.606;2023-03-02T04:31:22;58.75;49.30;79.96;;
74496;Laerm;62979;55.720;37.606;2023-03-02T04:33:49;54.48;47.27;64.48;;
74496;Laerm;62979;55.720;37.606;2023-03-02T04:36:18;57.42;46.40;65.25;;
74496;Laerm;62979;55.720;37.606;2023-03-02T04:38:45;56.69;47.88;74.76;;
74496;Laerm;62979;55.720;37.606;2023-03-02T04:41:12;55.87;49.32;64.97;;
74496;Laerm;62979;55.720;37.606;2023-03-02T04:43:39;63.02;46.98;90.34;;
74496;Laerm;62979;55.720;37.606;2023-03-02T04:46:06;55.31;47.41;69.23;;
74496;Laerm;62979;55.720;37.606;2023-03-02T04:48:33;58.23;50.27;67.94;;
74496;Laerm;62979;55.720;37.606;2023-03-02T04:51:00;56.74;50.06;65.21;;
74496;Laerm;62979;55.720;37.606;2023-03-02T04:53:28;58.04;50.33;70.16;;
74496;Laerm;62979;55.720;37.606;2023-03-02T04:55:55;59.47;52.38;79.05;;
74496;Laerm;62979;55.720;37.606;2023-03-02T04:58:22;59.59;52.44;71.61;;
74496;Laerm;62979;55.720;37.606;2023-03-02T05:00:49;60.06;54.42;67.50;;
74496;Laerm;62979;55.720;37.606;2023-03-02T05:03:15;60.69;55.79;68.33;;
74496;Laerm;62979;55.720;37.606;2023-03-02T05:05:42;60.78;54.01;73.70;;
74496;Laerm;62979;55.720;37.606;2023-03-02T05:08:09;58.10;50.66;65.62;;
74496;Laerm;62979;55.720;37.606;2023-03-02T05:10:38;59.07;49.87;66.57;;
74496;Laerm;62979;55.720;37.606;2023-03-02T05:13:05;57.61;50.29;65.30;;
74496;Laerm;62979;55.720;37.606;2023-03-02T05:15:37;58.25;51.07;65.61;;
74496;Laerm;62979;55.720;37.606;2023-03-02T05:18:07;58.27;50.74;65.54;;
74496;Laerm;62979;55.720;37.606;2023-03-02T05:20:35;58.30;50.64;68.07;;
74496;Laerm;62979;55.720;37.606;2023-03-02T05:23:07;64.18;52.97;76.18;;
74496;Laerm;62979;55.720;37.606;2023-03-02T05:25:38;61.24;51.78;72.42;;
74496;Laerm;62979;55.720;37.606;2023-03-02T05:28:05;57.44;51.55;68.68;;
74496;Laerm;62979;55.720;37.606;2023-03-02T05:30:32;57.70;50.13;64.88;;
74496;Laerm;62979;55.720;37.606;2023-03-02T05:33:02;58.85;49.88;69.87;;
74496;Laerm;62979;55.720;37.606;2023-03-02T05:35:29;58.25;50.68;66.76;;
74496;Laerm;62979;55.720;37.606;2023-03-02T05:37:56;57.91;47.79;65.29;;
74496;Laerm;62979;55.720;37.606;2023-03-02T05:40:23;58.23;47.71;67.31;;
74496;Laerm;62979;55.720;37.606;2023-03-02T05:42:51;58.22;51.48;67.73;;
74496;Laerm;62979;55.720;37.606;2023-03-02T05:45:22;59.23;51.79;68.02;;
74496;Laerm;62979;55.720;37.606;2023-03-02T05:47:50;58.28;51.21;68.93;;
74496;Laerm;62979;55.720;37.606;2023-03-02T05:50:18;57.63;51.19;70.78;;
74496;Laerm;62979;55.720;37.606;2023-03-02T05:52:45;57.49;51.02;65.54;;
74496;Laerm;62979;55.720;37.606;2023-03-02T05:55:12;62.38;52.10;73.29;;
74496;Laerm;62979;55.720;37.606;2023-03-02T05:57:40;56.81;50.67;65.06;;
74496;Laerm;62979;55.720;37.606;2023-03-02T06:00:12;56.43;49.14;66.11;;
74496;Laerm;62979;55.720;37.606;2023-03-02T06:02:39;57.32;51.29;67.14;;
74496;Laerm;62979;55.720;37.606;2023-03-02T06:05:09;57.66;52.62;66.68;;
74496;Laerm;62979;55.720;37.606;2023-03-02T06:07:37;58.55;50.73;64.91;;
74496;Laerm;62979;55.720;37.606;2023-03-02T06:10:06;56.81;50.14;67.31;;
74496;Laerm;62979;55.720;37.606;2023-03-02T06:12:34;56.19;50.46;65.44;;
74496;Laerm;62979;55.720;37.606;2023-03-02T06:15:02;57.42;51.57;65.29;;
74496;Laerm;62979;55.720;37.606;2023-03-02T06:17:30;56.51;49.14;64.38;;
74496;Laerm;62979;55.720;37.606;2023-03-02T06:19:57;57.78;48.96;70.22;;
74496;Laerm;62979;55.720;37.606;2023-03-02T06:22:25;57.68;50.58;72.27;;
74496;Laerm;62979;55.720;37.606;2023-03-02T06:24:52;59.57;53.08;72.41;;
74496;Laerm;62979;55.720;37.606;2023-03-02T06:27:19;57.43;50.05;63.94;;
74496;Laerm;62979;55.720;37.606;2023-03-02T06:29:46;58.67;50.86;69.89;;
74496;Laerm;62979;55.720;37.606;2023-03-02T06:32:13;57.54;50.48;65.31;;
74496;Laerm;62979;55.720;37.606;2023-03-02T06:34:41;58.41;50.68;69.17;;
74496;Laerm;62979;55.720;37.606;2023-03-02T06:37:08;58.51;49.48;68.93;;
74496;Laerm;62979;55.720;37.606;2023-03-02T06:39:35;57.83;51.54;66.72;;
74496;Laerm;62979;55.720;37.606;2023-03-02T06:42:02;56.61;50.38;66.39;;
74496;Laerm;62979;55.720;37.606;2023-03-02T06:44:29;57.32;50.95;72.78;;
74496;Laerm;62979;55.720;37.606;2023-03-02T06:46:56;57.05;51.69;64.64;;
74496;Laerm;62979;55.720;37.606;2023-03-02T06:49:23;59.00;52.88;72.20;;
74496;Laerm;62979;55.720;37.606;2023-03-02T06:51:51;59.76;51.06;81.65;;
74496;Laerm;62979;55.720;37.606;2023-03-02T06:54:19;57.58;52.13;72.40;;
74496;Laerm;62979;55.720;37.606;2023-03-02T06:56:45;57.79;52.65;65.89;;
74496;Laerm;62979;55.720;37.606;2023-03-02T06:59:12;56.95;49.80;68.69;;
74496;Laerm;62979;55.720;37.606;2023-03-02T07:01:39;55.51;50.23;62.93;;
74496;Laerm;62979;55.720;37.606;2023-03-02T07:04:06;57.34;51.89;68.67;;
74496;Laerm;62979;55.720;37.606;2023-03-02T07:06:33;59.12;51.23;84.31;;
74496;Laerm;62979;55.720;37.606;2023-03-02T07:09:02;59.80;49.54;76.53;;
74496;Laerm;62979;55.720;37.606;2023-03-02T07:11:29;59.34;52.50;77.23;;
74496;Laerm;62979;55.720;37.606;2023-03-02T07:13:59;59.43;50.21;84.86;;
74496;Laerm;62979;55.720;37.606;2023-03-02T07:16:26;57.01;48.96;67.74;;
74496;Laerm;62979;55.720;37.606;2023-03-02T07:18:53;57.47;51.96;66.37;;
74496;Laerm;62979;55.720;37.606;2023-03-02T07:21:20;55.78;49.92;64.51;;
74496;Laerm;62979;55.720;37.606;2023-03-02T07:23:47;58.20;48.76;64.94;;
74496;Laerm;62979;55.720;37.606;2023-03-02T07:26:15;56.38;50.78;70.23;;
74496;Laerm;62979;55.720;37.606;2023-03-02T07:28:42;59.13;50.40;73.43;;
74496;Laerm;62979;55.720;37.606;2023-03-02T07:31:10;57.91;51.79;64.92;;
74496;Laerm;62979;55.720;37.606;2023-03-02T07:33:39;57.91;52.40;64.86;;
74496;Laerm;62979;55.720;37.606;2023-03-02T07:36:07;57.06;49.76;74.16;;
74496;Laerm;62979;55.720;37.606;2023-03-02T07:38:35;57.82;51.28;70.18;;
74496;Laerm;62979;55.720;37.606;2023-03-02T07:41:06;58.75;49.58;77.90;;
74496;Laerm;62979;55.720;37.606;2023-03-02T07:43:35;59.33;52.54;79.49;;
74496;Laerm;62979;55.720;37.606;2023-03-02T07:46:02;60.28;53.14;78.41;;
74496;Laerm;62979;55.720;37.606;2023-03-02T07:48:30;59.40;50.79;76.17;;
74496;Laerm;62979;55.720;37.606;2023-03-02T07:50:58;61.01;51.40;82.94;;
74496;Laerm;62979;55.720;37.606;2023-03-02T07:53:26;56.94;51.04;64.61;;
74496;Laerm;62979;55.720;37.606;2023-03-02T07:55:53;57.83;50.60;71.63;;
74496;Laerm;62979;55.720;37.606;2023-03-02T07:58:20;56.71;49.98;69.24;;
74496;Laerm;62979;55.720;37.606;2023-03-02T08:00:50;59.74;52.70;82.04;;
74496;Laerm;62979;55.720;37.606;2023-03-02T08:03:16;57.69;48.85;65.33;;
74496;Laerm;62979;55.720;37.606;2023-03-02T08:05:43;56.61;50.72;73.12;;
74496;Laerm;62979;55.720;37.606;2023-03-02T08:08:10;56.17;49.64;67.29;;
74496;Laerm;62979;55.720;37.606;2023-03-02T08:10:37;56.54;49.17;69.65;;
74496;Laerm;62979;55.720;37.606;2023-03-02T08:13:04;58.15;52.20;74.60;;
74496;Laerm;62979;55.720;37.606;2023-03-02T08:15:31;61.99;49.99;83.98;;
74496;Laerm;62979;55.720;37.606;2023-03-02T08:18:00;58.22;49.48;79.75;;
74496;Laerm;62979;55.720;37.606;2023-03-02T08:20:27;57.96;49.06;70.20;;
74496;Laerm;62979;55.720;37.606;2023-03-02T08:22:54;57.58;50.94;69.83;;
74496;Laerm;62979;55.720;37.606;2023-03-02T08:25:21;59.52;52.06;78.20;;
74496;Laerm;62979;55.720;37.606;2023-03-02T08:27:48;57.96;50.94;73.58;;
74496;Laerm;62979;55.720;37.606;2023-03-02T08:30:15;58.39;52.61;77.88;;
74496;Laerm;62979;55.720;37.606;2023-03-02T08:32:42;57.58;49.99;75.31;;
74496;Laerm;62979;55.720;37.606;2023-03-02T08:35:10;57.40;50.51;67.15;;
74496;Laerm;62979;55.720;37.606;2023-03-02T08:37:37;58.58;50.91;75.92;;
74496;Laerm;62979;55.720;37.606;2023-03-02T08:40:06;62.15;54.28;85.79;;
74496;Laerm;62979;55.720;37.606;2023-03-02T08:42:33;60.51;50.85;78.67;;
74496;Laerm;62979;55.720;37.606;2023-03-02T08:45:00;57.51;51.43;75.27;;
74496;Laerm;62979;55.720;37.606;2023-03-02T08:47:27;59.04;50.25;67.63;;
74496;Laerm;62979;55.720;37.606;2023-03-02T08:49:54;56.67;49.67;70.12;;
74496;Laerm;62979;55.720;37.606;2023-03-02T08:52:25;56.65;51.66;66.33;;
74496;Laerm;62979;55.720;37.606;2023-03-02T08:54:52;57.57;49.72;70.00;;
74496;Laerm;62979;55.720;37.606;2023-03-02T08:57:18;57.87;50.67;71.83;;
74496;Laerm;62979;55.720;37.606;2023-03-02T08:59:45;59.45;51.70;81.69;;
74496;Laerm;62979;55.720;37.606;2023-03-02T09:02:12;60.20;50.23;77.58;;
74496;Laerm;62979;55.720;37.606;2023-03-02T09:04:39;57.09;51.42;68.65;;
74496;Laerm;62979;55.720;37.606;2023-03-02T09:07:06;59.12;49.44;74.52;;
74496;Laerm;62979;55.720;37.606;2023-03-02T09:09:35;56.15;48.84;71.04;;
74496;Laerm;62979;55.720;37.606;2023-03-02T09:12:02;58.97;50.90;75.59;;
74496;Laerm;62979;55.720;37.606;2023-03-02T09:14:29;57.51;49.13;72.04;;
74496;Laerm;62979;55.720;37.606;2023-03-02T09:16:56;57.61;50.87;71.41;;
74496;Laerm;62979;55.720;37.606;2023-03-02T09:19:23;63.27;52.12;83.41;;
74496;Laerm;62979;55.720;37.606;2023-03-02T09:21:50;60.54;52.16;78.47;;
74496;Laerm;62979;55.720;37.606;2023-03-02T09:24:17;58.19;52.00;75.53;;
74496;Laerm;62979;55.720;37.606;2023-03-02T09:26:45;58.80;52.06;80.40;;
74496;Laerm;62979;55.720;37.606;2023-03-02T09:29:12;57.81;51.40;68.09;;
74496;Laerm;62979;55.720;37.606;2023-03-02T09:31:39;57.87;52.77;71.41;;
74496;Laerm;62979;55.720;37.606;2023-03-02T09:34:06;59.32;53.38;73.99;;
74496;Laerm;62979;55.720;37.606;2023-03-02T09:36:33;58.79;53.12;74.72;;
74496;Laerm;62979;55.720;37.606;2023-03-02T09:39:01;61.11;53.57;80.11;;
74496;Laerm;62979;55.720;37.606;2023-03-02T09:42:21;59.96;52.48;76.55;;
74496;Laerm;62979;55.720;37.606;2023-03-02T09:45:24;60.81;51.45;84.67;;
74496;Laerm;62979;55.720;37.606;2023-03-02T09:48:14;60.20;51.37;79.48;;
74496;Laerm;62979;55.720;37.606;2023-03-02T09:50:59;59.27;50.50;74.06;;
74496;Laerm;62979;55.720;37.606;2023-03-02T09:53:38;57.87;49.31;67.90;;
74496;Laerm;62979;55.720;37.606;2023-03-02T09:56:15;57.62;51.48;65.87;;
74496;Laerm;62979;55.720;37.606;2023-03-02T09:58:52;57.06;51.68;67.03;;
74496;Laerm;62979;55.720;37.606;2023-03-02T10:01:33;65.59;51.38;85.41;;
74496;Laerm;62979;55.720;37.606;2023-03-02T10:04:14;57.56;51.04;66.98;;
74496;Laerm;62979;55.720;37.606;2023-03-02T10:06:45;57.29;50.05;74.35;;
74496;Laerm;62979;55.720;37.606;2023-03-02T10:09:12;58.38;50.57;72.01;;
74496;Laerm;62979;55.720;37.606;2023-03-02T10:11:55;58.47;50.01;75.15;;
74496;Laerm;62979;55.720;37.606;2023-03-02T10:14:29;58.60;51.09;68.53;;
74496;Laerm;62979;55.720;37.606;2023-03-02T10:17:28;58.07;52.01;71.25;;
74496;Laerm;62979;55.720;37.606;2023-03-02T10:20:03;57.83;51.09;75.58;;
74496;Laerm;62979;55.720;37.606;2023-03-02T10:22:36;59.80;54.36;74.39;;
74496;Laerm;62979;55.720;37.606;2023-03-02T10:25:21;60.49;52.98;69.58;;
74496;Laerm;62979;55.720;37.606;2023-03-02T10:27:54;61.62;53.60;77.04;;
74496;Laerm;62979;55.720;37.606;2023-03-02T10:30:30;61.40;53.13;75.30;;
74496;Laerm;62979;55.720;37.606;2023-03-02T10:33:02;58.58;51.89;66.32;;
74496;Laerm;62979;55.720;37.606;2023-03-02T10:35:30;56.20;50.93;71.20;;
74496;Laerm;62979;55.720;37.606;2023-03-02T10:38:08;58.04;49.98;67.51;;
74496;Laerm;62979;55.720;37.606;2023-03-02T10:40:41;57.76;50.47;74.84;;
74496;Laerm;62979;55.720;37.606;2023-03-02T10:43:16;57.87;51.52;67.95;;
74496;Laerm;62979;55.720;37.606;2023-03-02T10:45:58;57.00;48.44;66.19;;
74496;Laerm;62979;55.720;37.606;2023-03-02T10:48:25;56.18;49.61;64.81;;
74496;Laerm;62979;55.720;37.606;2023-03-02T10:50:54;55.38;48.50;64.19;;
74496;Laerm;62979;55.720;37.606;2023-03-02T10:53:21;56.82;50.62;67.89;;
74496;Laerm;62979;55.720;37.606;2023-03-02T10:55:51;57.00;50.88;67.31;;
74496;Laerm;62979;55.720;37.606;2023-03-02T10:58:23;56.96;49.90;71.11;;
74496;Laerm;62979;55.720;37.606;2023-03-02T11:00:58;56.67;50.71;77.38;;
74496;Laerm;62979;55.720;37.606;2023-03-02T11:03:27;57.79;50.88;76.94;;
74496;Laerm;62979;55.720;37.606;2023-03-02T11:05:55;58.03;50.50;68.98;;
74496;Laerm;62979;55.720;37.606;2023-03-02T11:08:24;56.88;51.62;67.12;;
74496;Laerm;62979;55.720;37.606;2023-03-02T11:10:55;56.27;49.93;65.19;;
74496;Laerm;62979;55.720;37.606;2023-03-02T11:13:26;57.69;50.18;63.91;;
74496;Laerm;62979;55.720;37.606;2023-03-02T11:15:58;56.21;49.79;74.01;;
74496;Laerm;62979;55.720;37.606;2023-03-02T11:18:31;56.67;51.01;71.24;;
74496;Laerm;62979;55.720;37.606;2023-03-02T11:21:03;57.07;51.06;75.01;;
74496;Laerm;62979;55.720;37.606;2023-03-02T11:23:40;57.55;51.85;76.20;;
74496;Laerm;62979;55.720;37.606;2023-03-02T11:26:18;57.94;50.90;81.23;;
74496;Laerm;62979;55.720;37.606;2023-03-02T11:28:53;58.77;51.11;67.69;;
74496;Laerm;62979;55.720;37.606;2023-03-02T11:31:32;57.64;51.40;77.47;;
74496;Laerm;62979;55.720;37.606;2023-03-02T11:34:29;58.36;51.69;66.67;;
74496;Laerm;62979;55.720;37.606;2023-03-02T11:37:04;58.94;52.65;73.27;;
74496;Laerm;62979;55.720;37.606;2023-03-02T11:39:59;58.38;51.91;71.88;;
74496;Laerm;62979;55.720;37.606;2023-03-02T11:42:33;60.06;53.84;75.27;;
74496;Laerm;62979;55.720;37.606;2023-03-02T11:45:14;60.58;52.08;82.92;;
74496;Laerm;62979;55.720;37.606;2023-03-02T11:47:50;59.83;49.89;82.90;;
74496;Laerm;62979;55.720;37.606;2023-03-02T11:50:20;58.46;51.82;67.25;;
74496;Laerm;62979;55.720;37.606;2023-03-02T11:52:53;58.81;49.53;75.80;;
74496;Laerm;62979;55.720;37.606;2023-03-02T11:55:22;57.78;51.88;79.04;;
74496;Laerm;62979;55.720;37.606;2023-03-02T11:57:53;57.47;52.62;71.31;;
74496;Laerm;62979;55.720;37.606;2023-03-02T12:00:30;58.89;51.63;74.87;;
74496;Laerm;62979;55.720;37.606;2023-03-02T12:03:03;58.28;52.10;71.90;;
74496;Laerm;62979;55.720;37.606;2023-03-02T12:05:35;56.27;49.71;65.68;;
74496;Laerm;62979;55.720;37.606;2023-03-02T12:08:06;60.75;51.16;86.97;;
74496;Laerm;62979;55.720;37.606;2023-03-02T12:10:39;57.65;52.38;71.61;;
74496;Laerm;62979;55.720;37.606;2023-03-02T12:13:16;58.97;53.77;75.57;;
74496;Laerm;62979;55.720;37.606;2023-03-02T12:15:46;58.26;52.61;76.38;;
74496;Laerm;62979;55.720;37.606;2023-03-02T12:18:30;58.89;52.29;69.88;;
74496;Laerm;62979;55.720;37.606;2023-03-02T12:21:08;59.51;50.83;81.20;;
74496;Laerm;62979;55.720;37.606;2023-03-02T12:23:53;57.58;51.38;69.28;;
74496;Laerm;62979;55.720;37.606;2023-03-02T12:26:31;56.92;51.46;72.23;;
74496;Laerm;62979;55.720;37.606;2023-03-02T12:29:04;58.19;52.15;67.43;;
74496;Laerm;62979;55.720;37.606;2023-03-02T12:31:41;59.06;51.31;68.28;;
74496;Laerm;62979;55.720;37.606;2023-03-02T12:34:28;56.38;50.88;67.98;;
74496;Laerm;62979;55.720;37.606;2023-03-02T12:37:05;57.97;53.23;69.96;;
74496;Laerm;62979;55.720;37.606;2023-03-02T12:42:52;57.67;51.16;64.06;;
74496;Laerm;62979;55.720;37.606;2023-03-02T12:45:41;57.52;50.67;67.74;;
74496;Laerm;62979;55.720;37.606;2023-03-02T12:48:26;61.44;52.21;76.72;;
74496;Laerm;62979;55.720;37.606;2023-03-02T12:51:00;56.64;50.97;72.42;;
74496;Laerm;62979;55.720;37.606;2023-03-02T12:53:29;58.77;53.15;78.50;;
74496;Laerm;62979;55.720;37.606;2023-03-02T12:55:56;59.04;52.32;65.06;;
74496;Laerm;62979;55.720;37.606;2023-03-02T12:58:26;57.88;51.67;68.56;;
74496;Laerm;62979;55.720;37.606;2023-03-02T13:00:57;57.75;51.25;69.20;;
74496;Laerm;62979;55.720;37.606;2023-03-02T13:03:26;56.46;51.50;63.11;;
74496;Laerm;62979;55.720;37.606;2023-03-02T13:06:01;56.69;50.97;68.76;;
74496;Laerm;62979;55.720;37.606;2023-03-02T13:08:31;56.18;50.64;64.35;;
74496;Laerm;62979;55.720;37.606;2023-03-02T13:11:01;57.27;51.26;67.77;;
74496;Laerm;62979;55.720;37.606;2023-03-02T13:13:37;58.70;52.71;68.65;;
74496;Laerm;62979;55.720;37.606;2023-03-02T13:16:17;57.99;52.06;69.13;;
74496;Laerm;62979;55.720;37.606;2023-03-02T13:18:46;58.49;52.39;75.87;;
74496;Laerm;62979;55.720;37.606;2023-03-02T13:21:17;56.95;52.16;63.07;;
74496;Laerm;62979;55.720;37.606;2023-03-02T13:23:49;57.54;52.52;69.35;;
74496;Laerm;62979;55.720;37.606;2023-03-02T13:26:26;58.75;52.78;68.36;;
74496;Laerm;62979;55.720;37.606;2023-03-02T13:29:02;58.66;52.85;75.03;;
74496;Laerm;62979;55.720;37.606;2023-03-02T13:31:30;58.50;53.63;65.35;;
74496;Laerm;62979;55.720;37.606;2023-03-02T13:33:58;57.85;51.79;67.78;;
74496;Laerm;62979;55.720;37.606;2023-03-02T13:36:32;58.95;52.55;70.72;;
74496;Laerm;62979;55.720;37.606;2023-03-02T13:39:04;60.31;52.63;82.98;;
74496;Laerm;62979;55.720;37.606;2023-03-02T13:41:34;57.73;52.01;63.94;;
74496;Laerm;62979;55.720;37.606;2023-03-02T13:44:16;58.38;52.57;64.97;;
74496;Laerm;62979;55.720;37.606;2023-03-02T13:46:45;58.84;53.58;71.70;;
74496;Laerm;62979;55.720;37.606;2023-03-02T13:49:13;56.79;52.25;76.25;;
74496;Laerm;62979;55.720;37.606;2023-03-02T13:52:00;58.67;52.32;65.71;;
74496;Laerm;62979;55.720;37.606;2023-03-02T13:54:30;58.82;51.07;68.83;;